createdAt,value
2022-10-05T00:00:44.478Z,62
2022-10-05T00:06:24.803Z,64
2022-10-05T00:12:05.097Z,62
2022-10-05T00:17:45.594Z,64
2022-10-05T00:23:25.704Z,78
2022-10-05T00:34:46.444Z,70
2022-10-05T00:40:26.650Z,64
2022-10-05T00:46:07.683Z,60
2022-10-05T00:51:48.701Z,60
2022-10-05T00:57:28.978Z,70
2022-10-05T01:03:09.787Z,60
2022-10-05T01:08:50.573Z,66
2022-10-05T01:14:31.016Z,68
2022-10-05T01:20:11.446Z,68
2022-10-05T01:25:52.116Z,58
2022-10-05T01:31:32.826Z,56
2022-10-05T01:37:13.502Z,60
2022-10-05T01:42:54.067Z,78
2022-10-05T01:48:34.312Z,70
2022-10-05T01:54:14.506Z,60
2022-10-05T01:59:54.899Z,52
2022-10-05T02:05:35.276Z,64
2022-10-05T02:11:15.920Z,60
2022-10-05T02:28:17.749Z,60
2022-10-05T02:33:58.400Z,56
2022-10-05T02:39:38.982Z,72
2022-10-05T02:45:20.030Z,62
2022-10-05T02:51:00.710Z,60
2022-10-05T02:56:40.886Z,64
2022-10-05T03:02:22.466Z,72
2022-10-05T03:08:04.112Z,72
2022-10-05T03:13:45.399Z,72
2022-10-05T03:19:27.004Z,68
2022-10-05T03:25:08.177Z,72
2022-10-05T03:30:48.632Z,60
2022-10-05T03:36:29.177Z,64
2022-10-05T03:42:10.464Z,70
2022-10-05T03:47:50.563Z,70
2022-10-05T03:53:30.825Z,68
2022-10-05T03:59:11.873Z,66
2022-10-05T04:04:52.392Z,70
2022-10-05T04:10:35.398Z,64
2022-10-05T04:21:56.695Z,72
2022-10-05T04:27:37.235Z,62
2022-10-05T04:33:18.073Z,64
2022-10-05T04:38:58.164Z,76
2022-10-05T04:44:38.617Z,64
2022-10-05T04:50:19.003Z,70
2022-10-05T04:55:59.280Z,64
2022-10-05T05:01:39.428Z,64
2022-10-05T05:07:20.830Z,76
2022-10-05T05:13:01.103Z,64
2022-10-05T05:18:41.471Z,70
2022-10-05T05:24:24.857Z,68
2022-10-05T05:30:05.411Z,64
2022-10-05T05:35:48.405Z,64
2022-10-05T05:41:28.995Z,58
2022-10-05T05:47:12.198Z,60
2022-10-05T05:52:53.648Z,76
2022-10-05T05:58:34.216Z,70
2022-10-05T06:04:15.026Z,60
2022-10-05T06:09:55.169Z,54
2022-10-05T06:26:56.957Z,76
2022-10-05T06:32:37.421Z,60
2022-10-05T06:38:20.917Z,56
2022-10-05T06:44:01.845Z,64
2022-10-05T06:49:42.843Z,66
2022-10-05T06:55:22.882Z,64
2022-10-05T07:01:03.555Z,56
2022-10-05T07:06:44.314Z,60
2022-10-05T07:12:25.183Z,66
2022-10-05T07:18:06.997Z,74
2022-10-05T07:23:48.033Z,62
2022-10-05T07:29:28.716Z,72
2022-10-05T07:35:09.322Z,76
2022-10-05T07:40:50.121Z,78
2022-10-05T07:46:31.008Z,62
2022-10-05T07:52:14.530Z,62
2022-10-05T07:57:55.110Z,72
2022-10-05T08:03:35.251Z,74
2022-10-05T08:09:14.919Z,66
2022-10-05T08:14:58.364Z,72
2022-10-05T08:20:38.560Z,72
2022-10-05T08:32:02.922Z,70
2022-10-05T08:37:43.274Z,66
2022-10-05T08:43:23.150Z,78
2022-10-05T08:49:03.638Z,64
2022-10-05T08:54:43.971Z,70
2022-10-05T09:00:24.206Z,72
2022-10-05T09:06:05.127Z,66
2022-10-05T09:11:47.117Z,70
2022-10-05T09:17:29.419Z,76
2022-10-05T09:23:09.557Z,74
2022-10-05T09:28:50.136Z,78
2022-10-05T09:34:31.912Z,64
2022-10-05T09:40:12.496Z,76
2022-10-05T09:45:53.389Z,72
2022-10-05T09:51:33.955Z,48
2022-10-05T09:57:14.818Z,42
2022-10-05T10:02:56.605Z,64
2022-10-05T10:08:37.171Z,52
2022-10-05T10:14:18.252Z,2
2022-10-05T10:20:01.932Z,0
2022-10-05T10:25:45.618Z,0
2022-10-05T10:37:09.829Z,0
2022-10-05T10:42:52.345Z,0
2022-10-05T10:48:33.011Z,2
2022-10-05T10:54:13.386Z,0
2022-10-05T10:59:53.573Z,0
2022-10-05T11:05:36.256Z,0
2022-10-05T11:11:16.679Z,2
2022-10-05T11:16:56.755Z,4
2022-10-05T11:22:45.977Z,2
2022-10-05T11:28:30.126Z,0
2022-10-05T11:34:13.762Z,2
2022-10-05T11:39:54.157Z,0
2022-10-05T11:45:35.203Z,2
2022-10-05T11:51:15.542Z,0
2022-10-05T11:57:02.560Z,0
2022-10-05T12:02:46.216Z,0
2022-10-05T12:08:27.318Z,2
2022-10-05T12:14:11.981Z,0
2022-10-05T12:19:54.558Z,0
2022-10-05T12:25:34.840Z,2
2022-10-05T12:31:16.326Z,0
2022-10-05T12:37:06.260Z,2
2022-10-05T12:42:47.254Z,2
2022-10-05T12:48:34.045Z,0
2022-10-05T12:54:31.593Z,0
2022-10-05T13:00:56.755Z,0
2022-10-05T13:06:44.497Z,0
2022-10-05T13:12:30.513Z,0
2022-10-05T13:18:18.938Z,4
2022-10-05T13:23:59.438Z,0
2022-10-05T13:29:40.306Z,0
2022-10-05T13:35:21.438Z,2
2022-10-05T13:41:03.643Z,0
2022-10-05T13:46:46.208Z,0
2022-10-05T13:52:26.899Z,2
2022-10-05T13:58:16.159Z,2
2022-10-05T14:03:58.966Z,0
2022-10-05T14:09:41.961Z,6
2022-10-05T14:21:03.593Z,4
2022-10-05T14:26:43.848Z,80
2022-10-05T14:32:23.955Z,78
2022-10-05T14:38:04.290Z,78
2022-10-05T14:43:44.563Z,70
2022-10-05T14:49:25.498Z,62
2022-10-05T14:55:05.714Z,72
2022-10-05T15:00:49.787Z,70
2022-10-05T15:06:33.616Z,78
2022-10-05T15:12:13.915Z,78
2022-10-05T15:17:54.265Z,70
2022-10-05T15:23:34.779Z,78
2022-10-05T15:29:15.112Z,70
2022-10-05T15:34:55.283Z,80
2022-10-05T15:40:36.102Z,74
2022-10-05T15:46:19.891Z,66
2022-10-05T15:51:59.868Z,66
2022-10-05T15:57:43.173Z,80
2022-10-05T16:03:26.294Z,66
2022-10-05T16:20:27.858Z,64
2022-10-05T16:26:08.209Z,68
2022-10-05T16:31:48.731Z,70
2022-10-05T16:37:29.322Z,72
2022-10-05T16:43:09.655Z,72
2022-10-05T16:48:49.839Z,66
2022-10-05T16:54:29.966Z,66
2022-10-05T17:00:17.244Z,70
2022-10-05T17:05:59.902Z,80
2022-10-05T17:11:39.859Z,78
2022-10-05T17:17:25.730Z,66
2022-10-05T17:23:07.106Z,88
2022-10-05T17:28:47.989Z,72
2022-10-05T17:34:28.284Z,66
2022-10-05T17:40:08.659Z,72
2022-10-05T17:45:49.458Z,68
2022-10-05T17:51:30.111Z,68
2022-10-05T17:57:13.826Z,72
2022-10-05T18:08:45.941Z,72
2022-10-05T18:14:29.683Z,76
2022-10-05T18:20:09.795Z,66
2022-10-05T18:25:52.245Z,64
2022-10-05T18:31:33.010Z,64
2022-10-05T18:37:13.464Z,88
2022-10-05T18:42:53.908Z,74
2022-10-05T18:48:54.633Z,76
2022-10-05T18:54:43.450Z,68
2022-10-05T19:00:23.653Z,70
2022-10-05T19:06:14.509Z,76
2022-10-05T19:11:58.237Z,64
2022-10-05T19:17:41.163Z,82
2022-10-05T19:23:28.867Z,76
2022-10-05T19:29:12.936Z,76
2022-10-05T19:40:40.322Z,72
2022-10-05T19:46:24.071Z,66
2022-10-05T19:52:09.748Z,68
2022-10-05T19:57:52.401Z,72
2022-10-05T20:03:35.717Z,76
2022-10-05T20:09:25.178Z,70
2022-10-05T20:15:11.703Z,76
2022-10-05T20:20:55.007Z,66
2022-10-05T20:26:43.318Z,72
2022-10-05T20:32:34.116Z,66
2022-10-05T20:38:22.281Z,68
2022-10-05T20:44:02.868Z,78
2022-10-05T20:49:43.473Z,66
2022-10-05T20:55:30.250Z,66
2022-10-05T21:01:14.995Z,76
2022-10-05T21:07:06.090Z,78
2022-10-05T21:12:56.970Z,74
2022-10-05T21:18:42.243Z,66
2022-10-05T21:24:23.406Z,66
2022-10-05T21:30:03.422Z,70
2022-10-05T21:47:08.072Z,72
2022-10-05T21:52:48.464Z,60
2022-10-05T21:58:31.498Z,74
2022-10-05T22:04:12.147Z,66
2022-10-05T22:09:55.152Z,64
2022-10-05T22:15:35.686Z,60
2022-10-05T22:21:16.124Z,74
2022-10-05T22:26:56.494Z,72
2022-10-05T22:32:37.128Z,64
2022-10-05T22:38:20.095Z,72
2022-10-05T22:44:00.394Z,66
2022-10-05T22:49:40.584Z,74
2022-10-05T22:55:20.908Z,70
2022-10-05T23:01:01.622Z,72
2022-10-05T23:06:42.208Z,76
2022-10-05T23:12:22.235Z,70
2022-10-05T23:18:02.333Z,64
2022-10-05T23:23:45.583Z,70
2022-10-05T23:29:26.102Z,74
2022-10-05T23:35:06.442Z,62
2022-10-05T23:40:47.556Z,72
2022-10-05T23:46:30.540Z,70
2022-10-05T23:52:11.140Z,60
2022-10-05T23:57:51.909Z,64
